Terminal Aerodrome Forecast
Issued by NWS

Home | Current Version | Previous Version | Text Only | Print | Product List | Glossary On
Versions: 1 2 3 4 5 6 7 8 9 10 11 12 13 14 15 16 17 18 19 20
000
FTUS43 KBIS 221100
TAFDIK
TAF
KDIK 221134Z 2212/2312 04006KT 3SM BR VCSH OVC003
     FM221600 07009KT P6SM BKN035
     FM230600 06011KT 6SM SHRA OVC035=

USA.gov is the U.S. government's official web portal to all federal, state and local government web resources and services.